CheckWX is a tool to help pilots better visualize weather data.  It is not intended as a substitute for an official pre-flight weather briefing.

06:56:56 UTC

YBMA TAF
Mount Isa Airport
Mount Isa, Australia
TAF YBMA 190447Z 1906/1918 15008KT CAVOK

Jun-19@
06:00 UTC

Jun-19 @ 06:00 UTC

Jun-19@
18:00 UTC

Jun-19 @ 18:00 UTC

TAF YBMA 190447Z 1906/1918 15008KT CAVOK
Wind
  • 150° at 8 KTS
Conditions
No significant weather
Cloud Levels
  • No significant clouds